Wenatchee, Washington
Current Conditions -  °F | °C
As of 6:55 AM on Thursday 23 Oct 2014 (Local Time) from KEAT Reporting Station
Light Rain Light Rain  
Wind Chill: 48°   Ceiling: 6500
Heat Index: 48°   Visibility: 10mi
Dew Point: 45°   Wind: 0mph
Humidity: 89%   Direction: NA
Pressure: 29.75"   Gusts: NA
Location:  47.41°N, 120.3°W
Report Text: KEAT 231355Z AUTO 00000KT 10SM -RA BKN065 OVC080 09/07 A2975 RMK AO2 RAB00 SLP076 P0001 T00890072
Loading
Personal Weather Stations






























Interactive Weather Map
Tropical Storm Tracking
New forecast layout! Learn more

10-Day Weather Forecast

Advertisements
Track Severe Weather on mobile